sensor_id;sensor_type;location;lat;lon;timestamp;temperature;humidity
61374;DHT22;47242;48.158;-1.586;2022-11-09T05:31:41;12.50;82.10
61374;DHT22;47242;48.158;-1.586;2022-11-09T05:34:20;12.40;82.10
61374;DHT22;47242;48.158;-1.586;2022-11-09T05:36:49;12.40;82.20
61374;DHT22;47242;48.158;-1.586;2022-11-09T05:39:15;12.40;82.40
61374;DHT22;47242;48.158;-1.586;2022-11-09T05:41:40;12.40;82.50
61374;DHT22;47242;48.158;-1.586;2022-11-09T05:44:06;12.50;82.50
61374;DHT22;47242;48.158;-1.586;2022-11-09T05:46:32;12.50;82.40
61374;DHT22;47242;48.158;-1.586;2022-11-09T05:48:58;12.50;82.50
61374;DHT22;47242;48.158;-1.586;2022-11-09T05:51:27;12.50;82.30
61374;DHT22;47242;48.158;-1.586;2022-11-09T05:53:55;12.60;82.30
61374;DHT22;47242;48.158;-1.586;2022-11-09T05:56:20;12.60;82.20
61374;DHT22;47242;48.158;-1.586;2022-11-09T05:58:46;12.60;82.20
61374;DHT22;47242;48.158;-1.586;2022-11-09T06:01:14;12.60;82.20
61374;DHT22;47242;48.158;-1.586;2022-11-09T06:03:40;12.70;82.10
61374;DHT22;47242;48.158;-1.586;2022-11-09T06:06:10;12.70;82.00
61374;DHT22;47242;48.158;-1.586;2022-11-09T06:08:39;12.70;81.80
61374;DHT22;47242;48.158;-1.586;2022-11-09T06:11:07;12.70;81.80
61374;DHT22;47242;48.158;-1.586;2022-11-09T06:13:34;12.70;81.90
61374;DHT22;47242;48.158;-1.586;2022-11-09T06:16:03;12.80;81.90
61374;DHT22;47242;48.158;-1.586;2022-11-09T06:18:30;12.70;82.00
61374;DHT22;47242;48.158;-1.586;2022-11-09T06:20:58;12.70;82.10
61374;DHT22;47242;48.158;-1.586;2022-11-09T06:23:24;12.70;82.00
61374;DHT22;47242;48.158;-1.586;2022-11-09T06:26:16;12.80;81.90
61374;DHT22;47242;48.158;-1.586;2022-11-09T06:28:42;12.80;82.00
61374;DHT22;47242;48.158;-1.586;2022-11-09T06:31:17;12.80;82.10
61374;DHT22;47242;48.158;-1.586;2022-11-09T06:33:44;12.80;82.00
61374;DHT22;47242;48.158;-1.586;2022-11-09T06:36:10;12.80;81.90
61374;DHT22;47242;48.158;-1.586;2022-11-09T06:38:36;12.80;81.80
61374;DHT22;47242;48.158;-1.586;2022-11-09T06:41:01;12.80;81.80
61374;DHT22;47242;48.158;-1.586;2022-11-09T06:43:28;12.80;81.70
61374;DHT22;47242;48.158;-1.586;2022-11-09T06:45:54;12.80;81.60
61374;DHT22;47242;48.158;-1.586;2022-11-09T06:48:22;12.80;81.40
61374;DHT22;47242;48.158;-1.586;2022-11-09T06:50:48;12.80;81.30
61374;DHT22;47242;48.158;-1.586;2022-11-09T06:53:15;12.80;81.40
61374;DHT22;47242;48.158;-1.586;2022-11-09T06:55:42;12.80;81.30
61374;DHT22;47242;48.158;-1.586;2022-11-09T06:58:11;12.80;81.20
61374;DHT22;47242;48.158;-1.586;2022-11-09T07:00:38;12.80;81.10
61374;DHT22;47242;48.158;-1.586;2022-11-09T07:03:04;12.80;81.20
61374;DHT22;47242;48.158;-1.586;2022-11-09T07:05:30;12.80;81.10
61374;DHT22;47242;48.158;-1.586;2022-11-09T07:07:58;12.80;81.10
61374;DHT22;47242;48.158;-1.586;2022-11-09T07:10:24;12.80;81.00
61374;DHT22;47242;48.158;-1.586;2022-11-09T07:12:50;12.80;80.90
61374;DHT22;47242;48.158;-1.586;2022-11-09T07:15:15;12.80;80.90
61374;DHT22;47242;48.158;-1.586;2022-11-09T07:17:42;12.80;80.80
61374;DHT22;47242;48.158;-1.586;2022-11-09T07:20:09;12.80;80.80
61374;DHT22;47242;48.158;-1.586;2022-11-09T07:22:35;12.80;80.70
61374;DHT22;47242;48.158;-1.586;2022-11-09T07:25:05;12.70;80.80
61374;DHT22;47242;48.158;-1.586;2022-11-09T07:27:32;12.80;80.70
61374;DHT22;47242;48.158;-1.586;2022-11-09T07:29:57;12.80;80.80
61374;DHT22;47242;48.158;-1.586;2022-11-09T07:32:23;12.80;80.70
61374;DHT22;47242;48.158;-1.586;2022-11-09T07:34:48;12.80;80.60
61374;DHT22;47242;48.158;-1.586;2022-11-09T07:37:14;12.80;80.70
61374;DHT22;47242;48.158;-1.586;2022-11-09T07:39:40;12.80;80.70
61374;DHT22;47242;48.158;-1.586;2022-11-09T07:42:05;12.80;80.80
61374;DHT22;47242;48.158;-1.586;2022-11-09T07:44:31;12.80;80.80
61374;DHT22;47242;48.158;-1.586;2022-11-09T07:46:56;12.80;80.70
61374;DHT22;47242;48.158;-1.586;2022-11-09T07:49:22;12.90;80.70
61374;DHT22;47242;48.158;-1.586;2022-11-09T07:51:48;12.90;80.60
61374;DHT22;47242;48.158;-1.586;2022-11-09T07:54:13;13.00;80.70
61374;DHT22;47242;48.158;-1.586;2022-11-09T07:56:39;13.00;80.60
61374;DHT22;47242;48.158;-1.586;2022-11-09T07:59:04;13.00;80.60
61374;DHT22;47242;48.158;-1.586;2022-11-09T08:01:30;13.10;80.50
61374;DHT22;47242;48.158;-1.586;2022-11-09T08:03:56;13.10;80.50
61374;DHT22;47242;48.158;-1.586;2022-11-09T08:06:21;13.10;80.50
61374;DHT22;47242;48.158;-1.586;2022-11-09T08:08:53;13.10;80.30
61374;DHT22;47242;48.158;-1.586;2022-11-09T08:11:18;13.10;80.30
61374;DHT22;47242;48.158;-1.586;2022-11-09T08:13:44;13.10;80.40
61374;DHT22;47242;48.158;-1.586;2022-11-09T08:16:10;13.10;80.30
61374;DHT22;47242;48.158;-1.586;2022-11-09T08:18:35;13.10;80.30
61374;DHT22;47242;48.158;-1.586;2022-11-09T08:21:03;13.10;80.50
61374;DHT22;47242;48.158;-1.586;2022-11-09T08:23:29;13.10;80.50
61374;DHT22;47242;48.158;-1.586;2022-11-09T08:25:55;13.10;80.50
61374;DHT22;47242;48.158;-1.586;2022-11-09T08:28:20;13.10;80.50
61374;DHT22;47242;48.158;-1.586;2022-11-09T08:30:57;13.10;80.50
61374;DHT22;47242;48.158;-1.586;2022-11-09T08:33:23;13.20;80.60
61374;DHT22;47242;48.158;-1.586;2022-11-09T08:35:49;13.20;80.60
61374;DHT22;47242;48.158;-1.586;2022-11-09T08:38:15;13.20;80.70
61374;DHT22;47242;48.158;-1.586;2022-11-09T08:40:40;13.20;80.60
61374;DHT22;47242;48.158;-1.586;2022-11-09T08:43:07;13.30;80.60
61374;DHT22;47242;48.158;-1.586;2022-11-09T08:45:36;13.30;80.60
61374;DHT22;47242;48.158;-1.586;2022-11-09T08:48:03;13.30;80.50
61374;DHT22;47242;48.158;-1.586;2022-11-09T08:50:30;13.30;80.40
61374;DHT22;47242;48.158;-1.586;2022-11-09T08:52:56;13.40;80.30
61374;DHT22;47242;48.158;-1.586;2022-11-09T08:55:23;13.50;80.30
61374;DHT22;47242;48.158;-1.586;2022-11-09T08:57:53;13.50;80.20
61374;DHT22;47242;48.158;-1.586;2022-11-09T09:00:19;13.50;80.20
61374;DHT22;47242;48.158;-1.586;2022-11-09T09:02:44;13.50;80.20
61374;DHT22;47242;48.158;-1.586;2022-11-09T09:05:10;13.40;80.30
61374;DHT22;47242;48.158;-1.586;2022-11-09T09:07:36;13.50;80.10
61374;DHT22;47242;48.158;-1.586;2022-11-09T09:10:03;13.50;80.00
61374;DHT22;47242;48.158;-1.586;2022-11-09T09:12:29;13.60;80.10
61374;DHT22;47242;48.158;-1.586;2022-11-09T09:14:55;13.60;80.00
61374;DHT22;47242;48.158;-1.586;2022-11-09T09:17:20;13.60;79.80
61374;DHT22;47242;48.158;-1.586;2022-11-09T09:19:46;13.60;79.70
61374;DHT22;47242;48.158;-1.586;2022-11-09T09:22:12;13.70;79.70
61374;DHT22;47242;48.158;-1.586;2022-11-09T09:24:37;13.70;79.60
61374;DHT22;47242;48.158;-1.586;2022-11-09T09:27:03;13.70;79.50
61374;DHT22;47242;48.158;-1.586;2022-11-09T09:29:28;13.70;79.50
61374;DHT22;47242;48.158;-1.586;2022-11-09T09:31:54;13.70;79.40
61374;DHT22;47242;48.158;-1.586;2022-11-09T09:34:20;13.80;79.40
61374;DHT22;47242;48.158;-1.586;2022-11-09T09:36:45;13.80;79.30
61374;DHT22;47242;48.158;-1.586;2022-11-09T09:39:11;13.80;79.20
61374;DHT22;47242;48.158;-1.586;2022-11-09T09:41:41;13.80;79.10
61374;DHT22;47242;48.158;-1.586;2022-11-09T09:47:18;13.90;79.10
61374;DHT22;47242;48.158;-1.586;2022-11-09T09:49:48;14.00;79.00
61374;DHT22;47242;48.158;-1.586;2022-11-09T09:52:33;14.00;79.00
61374;DHT22;47242;48.158;-1.586;2022-11-09T09:57:36;14.10;78.80
61374;DHT22;47242;48.158;-1.586;2022-11-09T10:00:06;14.20;78.80
61374;DHT22;47242;48.158;-1.586;2022-11-09T10:02:35;14.20;78.80
61374;DHT22;47242;48.158;-1.586;2022-11-09T10:05:06;14.20;78.50
61374;DHT22;47242;48.158;-1.586;2022-11-09T10:25:22;14.80;78.00
61374;DHT22;47242;48.158;-1.586;2022-11-09T10:27:56;14.80;77.50
61374;DHT22;47242;48.158;-1.586;2022-11-09T10:30:24;14.90;77.80
61374;DHT22;47242;48.158;-1.586;2022-11-09T10:32:53;15.00;77.80
61374;DHT22;47242;48.158;-1.586;2022-11-09T10:35:31;15.00;77.20
61374;DHT22;47242;48.158;-1.586;2022-11-09T10:37:58;15.00;76.60
61374;DHT22;47242;48.158;-1.586;2022-11-09T10:40:29;15.20;76.90
61374;DHT22;47242;48.158;-1.586;2022-11-09T10:43:01;15.20;76.50
61374;DHT22;47242;48.158;-1.586;2022-11-09T10:45:37;15.20;76.10
61374;DHT22;47242;48.158;-1.586;2022-11-09T10:48:06;15.20;76.30
61374;DHT22;47242;48.158;-1.586;2022-11-09T10:50:51;15.20;76.60
61374;DHT22;47242;48.158;-1.586;2022-11-09T10:53:31;15.20;76.10
61374;DHT22;47242;48.158;-1.586;2022-11-09T10:56:14;15.20;75.60
61374;DHT22;47242;48.158;-1.586;2022-11-09T10:58:49;15.20;76.00
61374;DHT22;47242;48.158;-1.586;2022-11-09T11:01:23;15.20;76.20
61374;DHT22;47242;48.158;-1.586;2022-11-09T11:03:53;15.30;76.30
61374;DHT22;47242;48.158;-1.586;2022-11-09T11:09:34;15.30;76.00
61374;DHT22;47242;48.158;-1.586;2022-11-09T11:11:36;15.30;75.60
61374;DHT22;47242;48.158;-1.586;2022-11-09T11:16:50;15.40;75.20
61374;DHT22;47242;48.158;-1.586;2022-11-09T11:19:35;15.50;75.20
61374;DHT22;47242;48.158;-1.586;2022-11-09T11:24:44;15.70;74.90
61374;DHT22;47242;48.158;-1.586;2022-11-09T11:32:29;15.80;73.90
61374;DHT22;47242;48.158;-1.586;2022-11-09T11:34:54;15.80;73.20
61374;DHT22;47242;48.158;-1.586;2022-11-09T11:37:57;15.70;73.10
61374;DHT22;47242;48.158;-1.586;2022-11-09T11:40:36;15.70;73.10
61374;DHT22;47242;48.158;-1.586;2022-11-09T11:45:42;15.70;73.70
61374;DHT22;47242;48.158;-1.586;2022-11-09T11:56:37;15.80;73.50
61374;DHT22;47242;48.158;-1.586;2022-11-09T12:02:46;15.90;73.10
61374;DHT22;47242;48.158;-1.586;2022-11-09T12:10:58;16.10;72.00
61374;DHT22;47242;48.158;-1.586;2022-11-09T12:19:13;16.00;71.20
61374;DHT22;47242;48.158;-1.586;2022-11-09T12:21:59;16.00;70.30
61374;DHT22;47242;48.158;-1.586;2022-11-09T12:27:31;15.90;69.70
61374;DHT22;47242;48.158;-1.586;2022-11-09T12:32:51;16.10;68.80
61374;DHT22;47242;48.158;-1.586;2022-11-09T12:35:20;16.10;68.50
61374;DHT22;47242;48.158;-1.586;2022-11-09T12:40:32;16.10;68.20
61374;DHT22;47242;48.158;-1.586;2022-11-09T12:43:15;16.10;67.60
61374;DHT22;47242;48.158;-1.586;2022-11-09T12:45:43;16.20;68.10
61374;DHT22;47242;48.158;-1.586;2022-11-09T12:48:34;16.20;67.90
61374;DHT22;47242;48.158;-1.586;2022-11-09T12:51:01;16.30;67.70
61374;DHT22;47242;48.158;-1.586;2022-11-09T12:53:32;16.30;67.60
61374;DHT22;47242;48.158;-1.586;2022-11-09T12:56:07;16.30;68.10
61374;DHT22;47242;48.158;-1.586;2022-11-09T12:58:36;16.30;67.70
61374;DHT22;47242;48.158;-1.586;2022-11-09T13:01:42;16.30;67.00
61374;DHT22;47242;48.158;-1.586;2022-11-09T13:04:03;16.40;67.70
61374;DHT22;47242;48.158;-1.586;2022-11-09T13:06:29;16.50;66.50
61374;DHT22;47242;48.158;-1.586;2022-11-09T13:16:57;16.90;66.00
61374;DHT22;47242;48.158;-1.586;2022-11-09T13:24:56;17.00;65.20
61374;DHT22;47242;48.158;-1.586;2022-11-09T13:30:01;17.00;63.90
61374;DHT22;47242;48.158;-1.586;2022-11-09T13:38:14;16.60;65.80
61374;DHT22;47242;48.158;-1.586;2022-11-09T13:40:50;16.50;65.40
61374;DHT22;47242;48.158;-1.586;2022-11-09T13:43:29;16.40;66.30
61374;DHT22;47242;48.158;-1.586;2022-11-09T13:46:04;16.20;66.50
61374;DHT22;47242;48.158;-1.586;2022-11-09T13:48:47;16.10;67.30
61374;DHT22;47242;48.158;-1.586;2022-11-09T13:51:54;16.00;67.30
61374;DHT22;47242;48.158;-1.586;2022-11-09T13:54:29;16.00;68.00
61374;DHT22;47242;48.158;-1.586;2022-11-09T13:56:56;16.00;68.20
61374;DHT22;47242;48.158;-1.586;2022-11-09T13:59:25;15.90;67.90
61374;DHT22;47242;48.158;-1.586;2022-11-09T14:01:53;15.90;68.20
61374;DHT22;47242;48.158;-1.586;2022-11-09T14:15:55;16.10;68.30
61374;DHT22;47242;48.158;-1.586;2022-11-09T14:23:30;16.20;67.70
61374;DHT22;47242;48.158;-1.586;2022-11-09T14:25:56;16.30;67.50
61374;DHT22;47242;48.158;-1.586;2022-11-09T14:28:31;16.30;66.90
61374;DHT22;47242;48.158;-1.586;2022-11-09T14:30:59;16.30;67.10
61374;DHT22;47242;48.158;-1.586;2022-11-09T14:33:30;16.30;66.50
61374;DHT22;47242;48.158;-1.586;2022-11-09T14:35:58;16.20;66.10
61374;DHT22;47242;48.158;-1.586;2022-11-09T14:38:46;16.10;66.90
61374;DHT22;47242;48.158;-1.586;2022-11-09T14:41:20;16.00;67.30
61374;DHT22;47242;48.158;-1.586;2022-11-09T14:43:48;15.90;67.40
61374;DHT22;47242;48.158;-1.586;2022-11-09T14:46:18;15.80;67.60
61374;DHT22;47242;48.158;-1.586;2022-11-09T14:48:56;15.90;67.50
61374;DHT22;47242;48.158;-1.586;2022-11-09T14:51:29;15.80;67.70
61374;DHT22;47242;48.158;-1.586;2022-11-09T14:53:56;15.80;67.80
61374;DHT22;47242;48.158;-1.586;2022-11-09T14:56:23;15.80;67.60
61374;DHT22;47242;48.158;-1.586;2022-11-09T14:58:49;15.70;67.30
61374;DHT22;47242;48.158;-1.586;2022-11-09T15:01:22;15.80;67.80
61374;DHT22;47242;48.158;-1.586;2022-11-09T15:06:33;15.90;67.30
61374;DHT22;47242;48.158;-1.586;2022-11-09T15:09:03;16.00;66.90
61374;DHT22;47242;48.158;-1.586;2022-11-09T15:11:36;16.00;66.70
61374;DHT22;47242;48.158;-1.586;2022-11-09T15:14:24;16.00;67.00
61374;DHT22;47242;48.158;-1.586;2022-11-09T15:17:13;16.10;66.80
61374;DHT22;47242;48.158;-1.586;2022-11-09T15:19:57;16.10;67.10
61374;DHT22;47242;48.158;-1.586;2022-11-09T15:30:37;15.90;68.00
61374;DHT22;47242;48.158;-1.586;2022-11-09T15:41:01;15.70;69.10
61374;DHT22;47242;48.158;-1.586;2022-11-09T15:43:27;15.80;69.20
61374;DHT22;47242;48.158;-1.586;2022-11-09T15:45:54;15.70;69.30
61374;DHT22;47242;48.158;-1.586;2022-11-09T15:48:20;15.70;69.60
61374;DHT22;47242;48.158;-1.586;2022-11-09T15:50:46;15.70;69.70
61374;DHT22;47242;48.158;-1.586;2022-11-09T15:53:13;15.70;70.00
61374;DHT22;47242;48.158;-1.586;2022-11-09T15:55:39;15.70;70.10
61374;DHT22;47242;48.158;-1.586;2022-11-09T15:58:05;15.60;70.40
61374;DHT22;47242;48.158;-1.586;2022-11-09T16:00:31;15.60;70.50
61374;DHT22;47242;48.158;-1.586;2022-11-09T16:02:56;15.60;70.60
61374;DHT22;47242;48.158;-1.586;2022-11-09T16:05:22;15.50;70.90
61374;DHT22;47242;48.158;-1.586;2022-11-09T16:07:54;15.50;71.10
61374;DHT22;47242;48.158;-1.586;2022-11-09T16:10:20;15.40;71.10
61374;DHT22;47242;48.158;-1.586;2022-11-09T16:12:51;15.40;71.20
61374;DHT22;47242;48.158;-1.586;2022-11-09T16:15:22;15.30;71.30
61374;DHT22;47242;48.158;-1.586;2022-11-09T16:17:48;15.30;71.20
61374;DHT22;47242;48.158;-1.586;2022-11-09T16:20:18;15.20;71.40
61374;DHT22;47242;48.158;-1.586;2022-11-09T16:22:44;15.20;71.50
61374;DHT22;47242;48.158;-1.586;2022-11-09T16:25:11;15.20;71.50
61374;DHT22;47242;48.158;-1.586;2022-11-09T16:27:37;15.20;71.40
61374;DHT22;47242;48.158;-1.586;2022-11-09T16:30:03;15.10;71.40
61374;DHT22;47242;48.158;-1.586;2022-11-09T16:32:29;15.10;71.40
61374;DHT22;47242;48.158;-1.586;2022-11-09T16:34:55;15.10;71.60
61374;DHT22;47242;48.158;-1.586;2022-11-09T16:37:21;15.00;71.60
61374;DHT22;47242;48.158;-1.586;2022-11-09T16:39:48;15.00;72.10
61374;DHT22;47242;48.158;-1.586;2022-11-09T16:42:15;14.90;72.00
61374;DHT22;47242;48.158;-1.586;2022-11-09T16:45:21;14.90;72.40
61374;DHT22;47242;48.158;-1.586;2022-11-09T16:55:03;14.80;72.50
61374;DHT22;47242;48.158;-1.586;2022-11-09T16:57:29;14.80;72.80
61374;DHT22;47242;48.158;-1.586;2022-11-09T16:59:54;14.70;72.80
61374;DHT22;47242;48.158;-1.586;2022-11-09T17:02:22;14.70;73.00
61374;DHT22;47242;48.158;-1.586;2022-11-09T17:04:48;14.60;73.00
61374;DHT22;47242;48.158;-1.586;2022-11-09T17:07:13;14.60;73.40
61374;DHT22;47242;48.158;-1.586;2022-11-09T17:09:39;14.60;73.30
61374;DHT22;47242;48.158;-1.586;2022-11-09T17:12:04;14.60;73.30
61374;DHT22;47242;48.158;-1.586;2022-11-09T17:14:30;14.60;73.30
61374;DHT22;47242;48.158;-1.586;2022-11-09T17:16:56;14.60;73.40
61374;DHT22;47242;48.158;-1.586;2022-11-09T17:19:22;14.50;73.50
61374;DHT22;47242;48.158;-1.586;2022-11-09T17:21:47;14.50;73.50
61374;DHT22;47242;48.158;-1.586;2022-11-09T17:24:13;14.50;73.50
61374;DHT22;47242;48.158;-1.586;2022-11-09T17:26:39;14.50;73.60
61374;DHT22;47242;48.158;-1.586;2022-11-09T17:29:05;14.50;73.60
61374;DHT22;47242;48.158;-1.586;2022-11-09T17:31:32;14.40;73.80
61374;DHT22;47242;48.158;-1.586;2022-11-09T17:33:57;14.40;73.70
61374;DHT22;47242;48.158;-1.586;2022-11-09T17:36:23;14.30;74.00
61374;DHT22;47242;48.158;-1.586;2022-11-09T17:38:56;14.40;74.20
61374;DHT22;47242;48.158;-1.586;2022-11-09T17:41:22;14.30;74.50
61374;DHT22;47242;48.158;-1.586;2022-11-09T17:43:48;14.30;74.20
61374;DHT22;47242;48.158;-1.586;2022-11-09T17:46:19;14.20;74.40
61374;DHT22;47242;48.158;-1.586;2022-11-09T17:48:47;14.20;74.30
61374;DHT22;47242;48.158;-1.586;2022-11-09T17:51:15;14.20;74.40
61374;DHT22;47242;48.158;-1.586;2022-11-09T17:53:41;14.10;74.20
61374;DHT22;47242;48.158;-1.586;2022-11-09T17:56:07;14.00;74.80
61374;DHT22;47242;48.158;-1.586;2022-11-09T17:58:37;14.00;74.80
61374;DHT22;47242;48.158;-1.586;2022-11-09T18:01:11;13.90;75.10
61374;DHT22;47242;48.158;-1.586;2022-11-09T18:03:47;13.90;75.10
61374;DHT22;47242;48.158;-1.586;2022-11-09T18:06:21;13.90;75.00
61374;DHT22;47242;48.158;-1.586;2022-11-09T18:08:47;13.90;75.00
61374;DHT22;47242;48.158;-1.586;2022-11-09T18:11:15;13.80;75.30
61374;DHT22;47242;48.158;-1.586;2022-11-09T18:13:44;13.80;75.60
61374;DHT22;47242;48.158;-1.586;2022-11-09T18:16:13;13.80;75.60
61374;DHT22;47242;48.158;-1.586;2022-11-09T18:26:29;13.70;76.10
61374;DHT22;47242;48.158;-1.586;2022-11-09T18:33:32;13.70;76.20
61374;DHT22;47242;48.158;-1.586;2022-11-09T18:46:25;13.60;76.50
61374;DHT22;47242;48.158;-1.586;2022-11-09T19:00:00;13.50;76.70
61374;DHT22;47242;48.158;-1.586;2022-11-09T19:03:21;13.50;76.70
61374;DHT22;47242;48.158;-1.586;2022-11-09T19:13:13;13.40;77.10
61374;DHT22;47242;48.158;-1.586;2022-11-09T19:16:13;13.30;76.90
61374;DHT22;47242;48.158;-1.586;2022-11-09T19:22:51;13.30;77.20
61374;DHT22;47242;48.158;-1.586;2022-11-09T19:25:26;13.30;77.20
61374;DHT22;47242;48.158;-1.586;2022-11-09T19:27:51;13.30;77.20
61374;DHT22;47242;48.158;-1.586;2022-11-09T19:30:17;13.20;77.40
61374;DHT22;47242;48.158;-1.586;2022-11-09T19:32:45;13.20;77.40
61374;DHT22;47242;48.158;-1.586;2022-11-09T19:35:10;13.10;77.40
61374;DHT22;47242;48.158;-1.586;2022-11-09T19:37:36;13.10;77.50
61374;DHT22;47242;48.158;-1.586;2022-11-09T19:40:02;13.00;77.60
61374;DHT22;47242;48.158;-1.586;2022-11-09T19:42:28;13.00;77.90
61374;DHT22;47242;48.158;-1.586;2022-11-09T19:44:53;12.90;78.00
61374;DHT22;47242;48.158;-1.586;2022-11-09T19:47:19;12.90;78.20
61374;DHT22;47242;48.158;-1.586;2022-11-09T19:49:45;12.90;78.30
61374;DHT22;47242;48.158;-1.586;2022-11-09T19:52:10;12.80;78.30
61374;DHT22;47242;48.158;-1.586;2022-11-09T19:54:36;12.80;78.20
61374;DHT22;47242;48.158;-1.586;2022-11-09T19:57:02;12.80;78.00
61374;DHT22;47242;48.158;-1.586;2022-11-09T19:59:28;12.80;77.90
61374;DHT22;47242;48.158;-1.586;2022-11-09T20:01:53;12.80;77.80
61374;DHT22;47242;48.158;-1.586;2022-11-09T20:04:19;12.80;78.10
61374;DHT22;47242;48.158;-1.586;2022-11-09T20:06:45;12.80;78.20
61374;DHT22;47242;48.158;-1.586;2022-11-09T20:09:11;12.80;78.20
61374;DHT22;47242;48.158;-1.586;2022-11-09T20:11:36;12.70;78.50
61374;DHT22;47242;48.158;-1.586;2022-11-09T20:14:21;12.70;78.40
61374;DHT22;47242;48.158;-1.586;2022-11-09T20:16:46;12.70;78.10
61374;DHT22;47242;48.158;-1.586;2022-11-09T20:19:13;12.70;78.00
61374;DHT22;47242;48.158;-1.586;2022-11-09T20:21:39;12.70;77.90
61374;DHT22;47242;48.158;-1.586;2022-11-09T20:24:05;12.70;77.80
61374;DHT22;47242;48.158;-1.586;2022-11-09T20:26:31;12.70;77.90
61374;DHT22;47242;48.158;-1.586;2022-11-09T20:28:57;12.70;77.90
61374;DHT22;47242;48.158;-1.586;2022-11-09T20:31:23;12.60;78.00
61374;DHT22;47242;48.158;-1.586;2022-11-09T20:33:49;12.70;78.10
61374;DHT22;47242;48.158;-1.586;2022-11-09T20:36:16;12.60;78.10
61374;DHT22;47242;48.158;-1.586;2022-11-09T20:38:43;12.60;78.00
61374;DHT22;47242;48.158;-1.586;2022-11-09T20:41:10;12.60;78.30
61374;DHT22;47242;48.158;-1.586;2022-11-09T20:43:36;12.50;78.10
61374;DHT22;47242;48.158;-1.586;2022-11-09T20:46:07;12.60;77.90
61374;DHT22;47242;48.158;-1.586;2022-11-09T20:48:33;12.50;78.00
61374;DHT22;47242;48.158;-1.586;2022-11-09T20:51:04;12.60;78.00
61374;DHT22;47242;48.158;-1.586;2022-11-09T20:53:30;12.60;78.10
61374;DHT22;47242;48.158;-1.586;2022-11-09T20:55:56;12.50;78.20
61374;DHT22;47242;48.158;-1.586;2022-11-09T20:58:22;12.50;78.30
61374;DHT22;47242;48.158;-1.586;2022-11-09T21:00:59;12.50;78.60
61374;DHT22;47242;48.158;-1.586;2022-11-09T21:03:42;12.50;78.80
61374;DHT22;47242;48.158;-1.586;2022-11-09T21:06:12;12.40;78.60
61374;DHT22;47242;48.158;-1.586;2022-11-09T21:08:38;12.40;78.80
61374;DHT22;47242;48.158;-1.586;2022-11-09T21:11:05;12.40;78.50
61374;DHT22;47242;48.158;-1.586;2022-11-09T21:13:31;12.30;78.50
61374;DHT22;47242;48.158;-1.586;2022-11-09T21:16:08;12.30;78.50
61374;DHT22;47242;48.158;-1.586;2022-11-09T21:18:35;12.30;78.40
61374;DHT22;47242;48.158;-1.586;2022-11-09T21:21:15;12.30;78.50
61374;DHT22;47242;48.158;-1.586;2022-11-09T21:23:41;12.30;78.30
61374;DHT22;47242;48.158;-1.586;2022-11-09T21:26:29;12.30;78.10
61374;DHT22;47242;48.158;-1.586;2022-11-09T21:29:19;12.30;78.30
61374;DHT22;47242;48.158;-1.586;2022-11-09T21:32:06;12.20;78.40
61374;DHT22;47242;48.158;-1.586;2022-11-09T21:34:34;12.20;78.50
61374;DHT22;47242;48.158;-1.586;2022-11-09T21:37:00;12.20;78.30
61374;DHT22;47242;48.158;-1.586;2022-11-09T21:39:25;12.20;78.30
61374;DHT22;47242;48.158;-1.586;2022-11-09T21:41:51;12.10;78.10
61374;DHT22;47242;48.158;-1.586;2022-11-09T21:44:17;12.20;78.10
61374;DHT22;47242;48.158;-1.586;2022-11-09T21:46:43;12.10;78.10
61374;DHT22;47242;48.158;-1.586;2022-11-09T21:49:10;12.10;78.30
61374;DHT22;47242;48.158;-1.586;2022-11-09T21:51:37;12.10;78.10
61374;DHT22;47242;48.158;-1.586;2022-11-09T21:54:04;12.00;78.30
61374;DHT22;47242;48.158;-1.586;2022-11-09T21:56:30;12.00;78.10
61374;DHT22;47242;48.158;-1.586;2022-11-09T21:58:56;12.00;78.10
61374;DHT22;47242;48.158;-1.586;2022-11-09T22:01:22;11.90;78.10
61374;DHT22;47242;48.158;-1.586;2022-11-09T22:03:48;11.90;78.30
61374;DHT22;47242;48.158;-1.586;2022-11-09T22:06:14;11.90;78.20
61374;DHT22;47242;48.158;-1.586;2022-11-09T22:08:41;11.90;78.30
61374;DHT22;47242;48.158;-1.586;2022-11-09T22:11:13;11.90;78.20
61374;DHT22;47242;48.158;-1.586;2022-11-09T22:13:39;11.90;78.20
61374;DHT22;47242;48.158;-1.586;2022-11-09T22:16:25;11.90;78.00
61374;DHT22;47242;48.158;-1.586;2022-11-09T22:18:52;11.90;78.00
61374;DHT22;47242;48.158;-1.586;2022-11-09T22:21:36;11.80;78.00
61374;DHT22;47242;48.158;-1.586;2022-11-09T22:24:02;11.80;78.10
61374;DHT22;47242;48.158;-1.586;2022-11-09T22:26:29;11.80;78.20
61374;DHT22;47242;48.158;-1.586;2022-11-09T22:28:59;11.80;78.20
